sensor_id;sensor_type;location;lat;lon;timestamp;P1;durP1;ratioP1;P2;durP2;ratioP2
14272;SDS011;7220;49.450;11.052;2024-02-26T00:02:27;2.28;;;1.75;;
14272;SDS011;7220;49.450;11.052;2024-02-26T00:06:28;1.75;;;1.58;;
14272;SDS011;7220;49.450;11.052;2024-02-26T00:10:29;1.98;;;1.50;;
14272;SDS011;7220;49.450;11.052;2024-02-26T00:14:30;2.00;;;1.80;;
14272;SDS011;7220;49.450;11.052;2024-02-26T00:18:30;2.38;;;1.60;;
14272;SDS011;7220;49.450;11.052;2024-02-26T00:22:31;4.75;;;2.08;;
14272;SDS011;7220;49.450;11.052;2024-02-26T00:26:31;1.88;;;1.77;;
14272;SDS011;7220;49.450;11.052;2024-02-26T00:30:32;1.83;;;1.73;;
14272;SDS011;7220;49.450;11.052;2024-02-26T00:34:32;1.38;;;1.23;;
14272;SDS011;7220;49.450;11.052;2024-02-26T00:38:33;1.85;;;1.63;;
14272;SDS011;7220;49.450;11.052;2024-02-26T00:42:33;2.15;;;1.50;;
14272;SDS011;7220;49.450;11.052;2024-02-26T00:46:34;1.77;;;1.58;;
14272;SDS011;7220;49.450;11.052;2024-02-26T00:50:34;1.48;;;1.40;;
14272;SDS011;7220;49.450;11.052;2024-02-26T00:54:34;1.55;;;1.45;;
14272;SDS011;7220;49.450;11.052;2024-02-26T00:58:35;2.28;;;1.60;;
14272;SDS011;7220;49.450;11.052;2024-02-26T01:02:35;1.90;;;1.73;;
14272;SDS011;7220;49.450;11.052;2024-02-26T01:06:36;2.97;;;2.13;;
14272;SDS011;7220;49.450;11.052;2024-02-26T01:10:36;2.50;;;1.67;;
14272;SDS011;7220;49.450;11.052;2024-02-26T01:14:37;2.47;;;2.22;;
14272;SDS011;7220;49.450;11.052;2024-02-26T01:18:37;2.17;;;1.92;;
14272;SDS011;7220;49.450;11.052;2024-02-26T01:22:37;1.75;;;1.60;;
14272;SDS011;7220;49.450;11.052;2024-02-26T01:26:38;2.28;;;1.58;;
14272;SDS011;7220;49.450;11.052;2024-02-26T01:30:39;2.60;;;2.15;;
14272;SDS011;7220;49.450;11.052;2024-02-26T01:34:39;3.53;;;2.08;;
14272;SDS011;7220;49.450;11.052;2024-02-26T01:38:39;3.20;;;2.15;;
14272;SDS011;7220;49.450;11.052;2024-02-26T01:42:40;2.53;;;2.05;;
14272;SDS011;7220;49.450;11.052;2024-02-26T01:46:41;3.95;;;2.08;;
14272;SDS011;7220;49.450;11.052;2024-02-26T01:50:42;4.55;;;2.70;;
14272;SDS011;7220;49.450;11.052;2024-02-26T01:54:42;3.30;;;2.70;;
14272;SDS011;7220;49.450;11.052;2024-02-26T01:58:45;4.90;;;2.80;;
14272;SDS011;7220;49.450;11.052;2024-02-26T02:02:45;4.15;;;2.78;;
14272;SDS011;7220;49.450;11.052;2024-02-26T02:06:48;3.38;;;2.58;;
14272;SDS011;7220;49.450;11.052;2024-02-26T02:10:49;3.13;;;2.42;;
14272;SDS011;7220;49.450;11.052;2024-02-26T02:14:50;4.15;;;2.08;;
14272;SDS011;7220;49.450;11.052;2024-02-26T02:18:51;5.10;;;2.53;;
14272;SDS011;7220;49.450;11.052;2024-02-26T02:22:51;3.72;;;2.97;;
14272;SDS011;7220;49.450;11.052;2024-02-26T02:26:51;3.75;;;2.60;;
14272;SDS011;7220;49.450;11.052;2024-02-26T02:30:52;3.45;;;2.58;;
14272;SDS011;7220;49.450;11.052;2024-02-26T02:34:52;4.30;;;3.03;;
14272;SDS011;7220;49.450;11.052;2024-02-26T02:38:53;3.67;;;2.83;;
14272;SDS011;7220;49.450;11.052;2024-02-26T02:42:53;3.58;;;2.55;;
14272;SDS011;7220;49.450;11.052;2024-02-26T02:46:54;5.10;;;3.10;;
14272;SDS011;7220;49.450;11.052;2024-02-26T02:50:54;4.47;;;2.58;;
14272;SDS011;7220;49.450;11.052;2024-02-26T02:54:55;3.97;;;2.78;;
14272;SDS011;7220;49.450;11.052;2024-02-26T02:58:56;3.67;;;2.60;;
14272;SDS011;7220;49.450;11.052;2024-02-26T03:02:56;2.97;;;2.70;;
14272;SDS011;7220;49.450;11.052;2024-02-26T03:06:56;3.92;;;2.83;;
14272;SDS011;7220;49.450;11.052;2024-02-26T03:11:00;2.75;;;2.30;;
14272;SDS011;7220;49.450;11.052;2024-02-26T03:15:01;5.43;;;2.97;;
14272;SDS011;7220;49.450;11.052;2024-02-26T03:19:02;3.38;;;2.95;;
14272;SDS011;7220;49.450;11.052;2024-02-26T03:23:03;4.63;;;2.97;;
14272;SDS011;7220;49.450;11.052;2024-02-26T03:27:04;3.35;;;2.75;;
14272;SDS011;7220;49.450;11.052;2024-02-26T03:31:09;2.67;;;2.40;;
14272;SDS011;7220;49.450;11.052;2024-02-26T03:35:10;2.88;;;2.42;;
14272;SDS011;7220;49.450;11.052;2024-02-26T03:39:11;3.70;;;2.30;;
14272;SDS011;7220;49.450;11.052;2024-02-26T03:43:11;2.28;;;2.05;;
14272;SDS011;7220;49.450;11.052;2024-02-26T03:47:12;6.28;;;2.85;;
14272;SDS011;7220;49.450;11.052;2024-02-26T03:51:13;4.72;;;2.38;;
14272;SDS011;7220;49.450;11.052;2024-02-26T03:55:13;3.08;;;2.63;;
14272;SDS011;7220;49.450;11.052;2024-02-26T03:59:13;4.85;;;2.83;;
14272;SDS011;7220;49.450;11.052;2024-02-26T04:03:14;3.10;;;2.17;;
14272;SDS011;7220;49.450;11.052;2024-02-26T04:07:14;5.97;;;2.40;;
14272;SDS011;7220;49.450;11.052;2024-02-26T04:11:14;3.22;;;2.22;;
14272;SDS011;7220;49.450;11.052;2024-02-26T04:15:17;3.38;;;2.80;;
14272;SDS011;7220;49.450;11.052;2024-02-26T04:19:18;3.83;;;2.60;;
14272;SDS011;7220;49.450;11.052;2024-02-26T04:23:19;2.70;;;2.10;;
14272;SDS011;7220;49.450;11.052;2024-02-26T04:27:19;3.75;;;2.20;;
14272;SDS011;7220;49.450;11.052;2024-02-26T04:31:20;3.53;;;2.30;;
14272;SDS011;7220;49.450;11.052;2024-02-26T04:35:20;2.92;;;2.47;;
14272;SDS011;7220;49.450;11.052;2024-02-26T04:39:20;3.85;;;2.15;;
14272;SDS011;7220;49.450;11.052;2024-02-26T04:43:21;2.45;;;2.17;;
14272;SDS011;7220;49.450;11.052;2024-02-26T04:47:21;2.67;;;2.22;;
14272;SDS011;7220;49.450;11.052;2024-02-26T04:51:22;2.42;;;2.15;;
14272;SDS011;7220;49.450;11.052;2024-02-26T04:55:22;2.58;;;2.35;;
14272;SDS011;7220;49.450;11.052;2024-02-26T04:59:22;3.45;;;2.35;;
14272;SDS011;7220;49.450;11.052;2024-02-26T05:03:23;2.88;;;1.98;;
14272;SDS011;7220;49.450;11.052;2024-02-26T05:07:23;2.22;;;1.98;;
14272;SDS011;7220;49.450;11.052;2024-02-26T05:11:23;2.08;;;1.73;;
14272;SDS011;7220;49.450;11.052;2024-02-26T05:15:24;2.83;;;2.03;;
14272;SDS011;7220;49.450;11.052;2024-02-26T05:19:24;3.72;;;2.28;;
14272;SDS011;7220;49.450;11.052;2024-02-26T05:23:25;2.70;;;2.00;;
14272;SDS011;7220;49.450;11.052;2024-02-26T05:27:27;2.33;;;1.90;;
14272;SDS011;7220;49.450;11.052;2024-02-26T05:31:27;3.72;;;2.40;;
14272;SDS011;7220;49.450;11.052;2024-02-26T05:35:28;2.45;;;1.90;;
14272;SDS011;7220;49.450;11.052;2024-02-26T05:39:29;2.95;;;2.13;;
14272;SDS011;7220;49.450;11.052;2024-02-26T05:43:29;2.50;;;1.80;;
14272;SDS011;7220;49.450;11.052;2024-02-26T05:47:29;2.25;;;2.00;;
14272;SDS011;7220;49.450;11.052;2024-02-26T05:51:30;2.15;;;1.80;;
14272;SDS011;7220;49.450;11.052;2024-02-26T05:55:30;2.20;;;2.00;;
14272;SDS011;7220;49.450;11.052;2024-02-26T05:59:30;2.30;;;2.00;;
14272;SDS011;7220;49.450;11.052;2024-02-26T06:03:31;3.78;;;2.05;;
14272;SDS011;7220;49.450;11.052;2024-02-26T06:07:31;2.78;;;2.08;;
14272;SDS011;7220;49.450;11.052;2024-02-26T06:11:32;3.33;;;2.40;;
14272;SDS011;7220;49.450;11.052;2024-02-26T06:15:32;4.05;;;1.92;;
14272;SDS011;7220;49.450;11.052;2024-02-26T06:19:32;2.03;;;1.90;;
14272;SDS011;7220;49.450;11.052;2024-02-26T06:23:33;2.65;;;1.70;;
14272;SDS011;7220;49.450;11.052;2024-02-26T06:27:33;3.65;;;2.45;;
14272;SDS011;7220;49.450;11.052;2024-02-26T06:31:34;2.10;;;1.90;;
14272;SDS011;7220;49.450;11.052;2024-02-26T06:35:34;2.00;;;1.85;;
14272;SDS011;7220;49.450;11.052;2024-02-26T06:39:35;1.90;;;1.80;;
14272;SDS011;7220;49.450;11.052;2024-02-26T06:43:35;1.88;;;1.58;;
14272;SDS011;7220;49.450;11.052;2024-02-26T06:47:36;2.17;;;1.75;;
14272;SDS011;7220;49.450;11.052;2024-02-26T06:51:36;3.15;;;1.92;;
14272;SDS011;7220;49.450;11.052;2024-02-26T06:55:36;2.25;;;1.65;;
14272;SDS011;7220;49.450;11.052;2024-02-26T06:59:40;1.60;;;1.50;;
14272;SDS011;7220;49.450;11.052;2024-02-26T07:03:40;2.78;;;2.10;;
14272;SDS011;7220;49.450;11.052;2024-02-26T07:07:41;2.40;;;1.95;;
14272;SDS011;7220;49.450;11.052;2024-02-26T07:11:41;3.22;;;2.05;;
14272;SDS011;7220;49.450;11.052;2024-02-26T07:15:42;3.03;;;1.80;;
14272;SDS011;7220;49.450;11.052;2024-02-26T07:19:43;2.60;;;1.80;;
14272;SDS011;7220;49.450;11.052;2024-02-26T07:23:43;3.03;;;2.15;;
14272;SDS011;7220;49.450;11.052;2024-02-26T07:27:43;2.30;;;1.92;;
14272;SDS011;7220;49.450;11.052;2024-02-26T07:31:44;3.05;;;2.03;;
14272;SDS011;7220;49.450;11.052;2024-02-26T07:35:44;2.40;;;2.08;;
14272;SDS011;7220;49.450;11.052;2024-02-26T07:39:44;1.80;;;1.70;;
14272;SDS011;7220;49.450;11.052;2024-02-26T07:43:45;3.53;;;2.38;;
14272;SDS011;7220;49.450;11.052;2024-02-26T07:47:46;2.28;;;1.80;;
14272;SDS011;7220;49.450;11.052;2024-02-26T07:51:47;2.30;;;1.60;;
14272;SDS011;7220;49.450;11.052;2024-02-26T07:55:47;2.47;;;1.80;;
14272;SDS011;7220;49.450;11.052;2024-02-26T07:59:47;3.35;;;2.70;;
14272;SDS011;7220;49.450;11.052;2024-02-26T08:03:49;2.38;;;1.80;;
14272;SDS011;7220;49.450;11.052;2024-02-26T08:07:50;2.83;;;2.13;;
14272;SDS011;7220;49.450;11.052;2024-02-26T08:11:50;4.15;;;2.20;;
14272;SDS011;7220;49.450;11.052;2024-02-26T08:15:51;2.90;;;2.20;;
14272;SDS011;7220;49.450;11.052;2024-02-26T08:19:51;2.47;;;1.67;;
14272;SDS011;7220;49.450;11.052;2024-02-26T08:23:51;1.77;;;1.58;;
14272;SDS011;7220;49.450;11.052;2024-02-26T08:27:52;3.53;;;2.05;;
14272;SDS011;7220;49.450;11.052;2024-02-26T08:31:52;2.10;;;1.80;;
14272;SDS011;7220;49.450;11.052;2024-02-26T08:35:53;3.20;;;2.00;;
14272;SDS011;7220;49.450;11.052;2024-02-26T08:39:53;4.25;;;1.73;;
14272;SDS011;7220;49.450;11.052;2024-02-26T08:43:53;3.13;;;2.22;;
14272;SDS011;7220;49.450;11.052;2024-02-26T08:47:54;2.55;;;1.88;;
14272;SDS011;7220;49.450;11.052;2024-02-26T08:51:55;2.00;;;1.60;;
14272;SDS011;7220;49.450;11.052;2024-02-26T08:55:56;2.15;;;1.67;;
14272;SDS011;7220;49.450;11.052;2024-02-26T08:59:56;2.03;;;1.75;;
14272;SDS011;7220;49.450;11.052;2024-02-26T09:03:56;1.80;;;1.60;;
14272;SDS011;7220;49.450;11.052;2024-02-26T09:07:57;2.10;;;1.85;;
14272;SDS011;7220;49.450;11.052;2024-02-26T09:11:57;2.80;;;1.88;;
14272;SDS011;7220;49.450;11.052;2024-02-26T09:15:58;3.03;;;1.80;;
14272;SDS011;7220;49.450;11.052;2024-02-26T09:19:59;1.92;;;1.70;;
14272;SDS011;7220;49.450;11.052;2024-02-26T09:24:00;1.80;;;1.70;;
14272;SDS011;7220;49.450;11.052;2024-02-26T09:28:00;3.47;;;1.73;;
14272;SDS011;7220;49.450;11.052;2024-02-26T09:32:01;3.85;;;1.88;;
14272;SDS011;7220;49.450;11.052;2024-02-26T09:36:02;2.15;;;1.85;;
14272;SDS011;7220;49.450;11.052;2024-02-26T09:40:03;2.78;;;2.00;;
14272;SDS011;7220;49.450;11.052;2024-02-26T09:44:04;3.13;;;1.75;;
14272;SDS011;7220;49.450;11.052;2024-02-26T09:48:05;2.00;;;1.75;;
14272;SDS011;7220;49.450;11.052;2024-02-26T09:52:10;2.90;;;2.28;;
14272;SDS011;7220;49.450;11.052;2024-02-26T09:56:12;2.42;;;1.80;;
14272;SDS011;7220;49.450;11.052;2024-02-26T10:00:22;2.15;;;1.80;;
14272;SDS011;7220;49.450;11.052;2024-02-26T10:04:25;2.45;;;1.67;;
14272;SDS011;7220;49.450;11.052;2024-02-26T10:08:26;2.80;;;1.80;;
14272;SDS011;7220;49.450;11.052;2024-02-26T10:12:28;3.22;;;2.20;;
14272;SDS011;7220;49.450;11.052;2024-02-26T10:16:29;2.85;;;2.05;;
14272;SDS011;7220;49.450;11.052;2024-02-26T10:20:30;2.22;;;1.90;;
14272;SDS011;7220;49.450;11.052;2024-02-26T10:24:31;2.08;;;1.80;;
14272;SDS011;7220;49.450;11.052;2024-02-26T10:28:32;3.80;;;2.22;;
14272;SDS011;7220;49.450;11.052;2024-02-26T10:32:33;2.90;;;2.10;;
14272;SDS011;7220;49.450;11.052;2024-02-26T10:36:34;2.22;;;1.83;;
14272;SDS011;7220;49.450;11.052;2024-02-26T10:40:35;1.85;;;1.73;;
14272;SDS011;7220;49.450;11.052;2024-02-26T10:44:35;2.00;;;1.80;;
14272;SDS011;7220;49.450;11.052;2024-02-26T10:48:36;1.25;;;1.13;;
14272;SDS011;7220;49.450;11.052;2024-02-26T10:52:36;2.88;;;1.85;;
14272;SDS011;7220;49.450;11.052;2024-02-26T10:56:37;3.45;;;1.83;;
14272;SDS011;7220;49.450;11.052;2024-02-26T11:00:41;2.22;;;1.70;;
14272;SDS011;7220;49.450;11.052;2024-02-26T11:04:43;1.50;;;1.40;;
14272;SDS011;7220;49.450;11.052;2024-02-26T11:08:45;2.83;;;1.52;;
14272;SDS011;7220;49.450;11.052;2024-02-26T11:12:48;1.50;;;1.40;;
14272;SDS011;7220;49.450;11.052;2024-02-26T11:16:50;2.28;;;1.67;;
14272;SDS011;7220;49.450;11.052;2024-02-26T11:20:50;1.70;;;1.60;;
14272;SDS011;7220;49.450;11.052;2024-02-26T11:24:52;2.47;;;1.85;;
14272;SDS011;7220;49.450;11.052;2024-02-26T11:28:54;1.92;;;1.60;;
14272;SDS011;7220;49.450;11.052;2024-02-26T11:32:55;1.85;;;1.30;;
14272;SDS011;7220;49.450;11.052;2024-02-26T11:36:56;1.65;;;1.40;;
14272;SDS011;7220;49.450;11.052;2024-02-26T11:40:57;2.97;;;1.80;;
14272;SDS011;7220;49.450;11.052;2024-02-26T11:44:58;2.55;;;1.77;;
14272;SDS011;7220;49.450;11.052;2024-02-26T11:49:01;3.00;;;1.40;;
14272;SDS011;7220;49.450;11.052;2024-02-26T11:57:22;1.65;;;1.50;;
14272;SDS011;7220;49.450;11.052;2024-02-26T12:05:39;1.50;;;1.40;;
14272;SDS011;7220;49.450;11.052;2024-02-26T12:09:40;2.45;;;1.65;;
14272;SDS011;7220;49.450;11.052;2024-02-26T12:13:41;2.15;;;1.67;;
14272;SDS011;7220;49.450;11.052;2024-02-26T12:17:43;1.58;;;1.48;;
14272;SDS011;7220;49.450;11.052;2024-02-26T12:21:52;1.90;;;1.70;;
14272;SDS011;7220;49.450;11.052;2024-02-26T12:26:01;2.08;;;1.48;;
14272;SDS011;7220;49.450;11.052;2024-02-26T12:30:04;1.92;;;1.55;;
14272;SDS011;7220;49.450;11.052;2024-02-26T12:34:06;2.10;;;1.77;;
14272;SDS011;7220;49.450;11.052;2024-02-26T12:38:07;1.73;;;1.60;;
14272;SDS011;7220;49.450;11.052;2024-02-26T12:42:08;2.45;;;1.80;;
14272;SDS011;7220;49.450;11.052;2024-02-26T12:46:09;3.08;;;2.03;;
14272;SDS011;7220;49.450;11.052;2024-02-26T12:50:11;1.70;;;1.60;;
14272;SDS011;7220;49.450;11.052;2024-02-26T12:54:12;2.40;;;1.50;;
14272;SDS011;7220;49.450;11.052;2024-02-26T12:58:13;2.70;;;1.55;;
14272;SDS011;7220;49.450;11.052;2024-02-26T13:02:15;3.10;;;1.75;;
14272;SDS011;7220;49.450;11.052;2024-02-26T13:06:15;1.40;;;1.30;;
14272;SDS011;7220;49.450;11.052;2024-02-26T13:10:17;1.58;;;1.48;;
14272;SDS011;7220;49.450;11.052;2024-02-26T13:14:21;1.40;;;1.30;;
14272;SDS011;7220;49.450;11.052;2024-02-26T13:18:22;1.45;;;1.35;;
14272;SDS011;7220;49.450;11.052;2024-02-26T13:22:27;2.95;;;1.70;;
14272;SDS011;7220;49.450;11.052;2024-02-26T13:26:30;1.10;;;1.00;;
14272;SDS011;7220;49.450;11.052;2024-02-26T13:30:30;1.17;;;1.08;;
14272;SDS011;7220;49.450;11.052;2024-02-26T13:34:30;1.63;;;1.30;;
14272;SDS011;7220;49.450;11.052;2024-02-26T13:38:31;1.05;;;1.05;;
14272;SDS011;7220;49.450;11.052;2024-02-26T13:42:31;1.98;;;1.15;;
14272;SDS011;7220;49.450;11.052;2024-02-26T13:46:32;0.88;;;0.88;;
14272;SDS011;7220;49.450;11.052;2024-02-26T13:50:32;1.48;;;1.20;;
14272;SDS011;7220;49.450;11.052;2024-02-26T13:54:32;1.42;;;1.33;;
14272;SDS011;7220;49.450;11.052;2024-02-26T13:58:34;2.00;;;1.60;;
14272;SDS011;7220;49.450;11.052;2024-02-26T14:02:34;2.65;;;1.55;;
14272;SDS011;7220;49.450;11.052;2024-02-26T14:06:36;2.30;;;1.38;;
14272;SDS011;7220;49.450;11.052;2024-02-26T14:10:37;1.55;;;1.30;;
14272;SDS011;7220;49.450;11.052;2024-02-26T14:14:37;1.65;;;1.30;;
14272;SDS011;7220;49.450;11.052;2024-02-26T14:18:40;2.33;;;1.48;;
14272;SDS011;7220;49.450;11.052;2024-02-26T14:22:44;1.35;;;1.13;;
14272;SDS011;7220;49.450;11.052;2024-02-26T14:26:44;4.30;;;2.17;;
14272;SDS011;7220;49.450;11.052;2024-02-26T14:30:45;1.58;;;1.35;;
14272;SDS011;7220;49.450;11.052;2024-02-26T14:34:46;2.47;;;1.50;;
14272;SDS011;7220;49.450;11.052;2024-02-26T14:38:46;2.28;;;1.45;;
14272;SDS011;7220;49.450;11.052;2024-02-26T14:42:47;2.20;;;1.33;;
14272;SDS011;7220;49.450;11.052;2024-02-26T14:46:48;2.13;;;1.38;;
14272;SDS011;7220;49.450;11.052;2024-02-26T14:50:49;1.83;;;1.00;;
14272;SDS011;7220;49.450;11.052;2024-02-26T14:54:49;2.45;;;1.48;;
14272;SDS011;7220;49.450;11.052;2024-02-26T14:58:51;1.83;;;1.40;;
14272;SDS011;7220;49.450;11.052;2024-02-26T15:02:51;2.75;;;1.48;;
14272;SDS011;7220;49.450;11.052;2024-02-26T15:06:54;1.88;;;1.60;;
14272;SDS011;7220;49.450;11.052;2024-02-26T15:10:54;1.60;;;1.50;;
14272;SDS011;7220;49.450;11.052;2024-02-26T15:14:55;4.05;;;1.35;;
14272;SDS011;7220;49.450;11.052;2024-02-26T15:18:56;2.55;;;1.40;;
14272;SDS011;7220;49.450;11.052;2024-02-26T15:22:57;2.50;;;1.80;;
14272;SDS011;7220;49.450;11.052;2024-02-26T15:26:57;12.93;;;2.97;;
14272;SDS011;7220;49.450;11.052;2024-02-26T15:30:57;9.07;;;2.75;;
14272;SDS011;7220;49.450;11.052;2024-02-26T15:34:58;3.80;;;2.15;;
14272;SDS011;7220;49.450;11.052;2024-02-26T15:38:58;2.35;;;1.63;;
14272;SDS011;7220;49.450;11.052;2024-02-26T15:42:58;3.53;;;2.00;;
14272;SDS011;7220;49.450;11.052;2024-02-26T15:46:59;3.97;;;1.77;;
14272;SDS011;7220;49.450;11.052;2024-02-26T15:50:59;3.83;;;2.03;;
14272;SDS011;7220;49.450;11.052;2024-02-26T15:55:00;3.20;;;1.73;;
14272;SDS011;7220;49.450;11.052;2024-02-26T15:59:00;2.58;;;1.70;;
14272;SDS011;7220;49.450;11.052;2024-02-26T16:03:01;1.90;;;1.77;;
14272;SDS011;7220;49.450;11.052;2024-02-26T16:07:03;2.42;;;1.80;;
14272;SDS011;7220;49.450;11.052;2024-02-26T16:11:12;4.07;;;2.30;;
14272;SDS011;7220;49.450;11.052;2024-02-26T16:15:12;4.25;;;2.05;;
14272;SDS011;7220;49.450;11.052;2024-02-26T16:19:13;2.85;;;1.90;;
14272;SDS011;7220;49.450;11.052;2024-02-26T16:23:16;2.15;;;1.60;;
14272;SDS011;7220;49.450;11.052;2024-02-26T16:27:17;2.97;;;1.70;;
14272;SDS011;7220;49.450;11.052;2024-02-26T16:31:17;2.67;;;1.67;;
14272;SDS011;7220;49.450;11.052;2024-02-26T16:35:18;2.60;;;1.95;;
14272;SDS011;7220;49.450;11.052;2024-02-26T16:39:18;1.92;;;1.77;;
14272;SDS011;7220;49.450;11.052;2024-02-26T16:43:18;3.92;;;2.35;;
14272;SDS011;7220;49.450;11.052;2024-02-26T16:47:19;3.10;;;1.83;;
14272;SDS011;7220;49.450;11.052;2024-02-26T16:51:19;3.13;;;1.98;;
14272;SDS011;7220;49.450;11.052;2024-02-26T16:55:20;4.00;;;2.08;;
14272;SDS011;7220;49.450;11.052;2024-02-26T16:59:20;3.90;;;2.45;;
14272;SDS011;7220;49.450;11.052;2024-02-26T17:03:21;3.50;;;1.90;;
14272;SDS011;7220;49.450;11.052;2024-02-26T17:07:21;3.88;;;2.30;;
14272;SDS011;7220;49.450;11.052;2024-02-26T17:11:21;3.17;;;2.20;;
14272;SDS011;7220;49.450;11.052;2024-02-26T17:15:25;2.13;;;1.92;;
14272;SDS011;7220;49.450;11.052;2024-02-26T17:19:26;3.53;;;2.55;;
14272;SDS011;7220;49.450;11.052;2024-02-26T17:23:26;3.65;;;2.30;;
14272;SDS011;7220;49.450;11.052;2024-02-26T17:27:27;2.05;;;1.63;;
14272;SDS011;7220;49.450;11.052;2024-02-26T17:31:27;2.28;;;2.08;;
14272;SDS011;7220;49.450;11.052;2024-02-26T17:35:29;3.83;;;2.00;;
14272;SDS011;7220;49.450;11.052;2024-02-26T17:39:30;2.80;;;2.35;;
14272;SDS011;7220;49.450;11.052;2024-02-26T17:43:30;3.00;;;2.38;;
14272;SDS011;7220;49.450;11.052;2024-02-26T17:47:31;2.50;;;2.30;;
14272;SDS011;7220;49.450;11.052;2024-02-26T17:51:31;6.43;;;2.70;;
14272;SDS011;7220;49.450;11.052;2024-02-26T17:55:32;3.35;;;2.35;;
14272;SDS011;7220;49.450;11.052;2024-02-26T17:59:33;4.03;;;2.58;;
14272;SDS011;7220;49.450;11.052;2024-02-26T18:03:33;3.10;;;2.35;;
14272;SDS011;7220;49.450;11.052;2024-02-26T18:07:34;4.82;;;3.20;;
14272;SDS011;7220;49.450;11.052;2024-02-26T18:11:35;3.63;;;2.22;;
14272;SDS011;7220;49.450;11.052;2024-02-26T18:15:35;4.95;;;2.75;;
14272;SDS011;7220;49.450;11.052;2024-02-26T18:19:35;5.78;;;2.80;;
14272;SDS011;7220;49.450;11.052;2024-02-26T18:23:36;4.97;;;2.88;;
14272;SDS011;7220;49.450;11.052;2024-02-26T18:27:37;5.72;;;2.78;;
14272;SDS011;7220;49.450;11.052;2024-02-26T18:31:38;5.05;;;2.83;;
14272;SDS011;7220;49.450;11.052;2024-02-26T18:35:38;4.15;;;2.80;;
14272;SDS011;7220;49.450;11.052;2024-02-26T18:39:39;5.07;;;3.13;;
14272;SDS011;7220;49.450;11.052;2024-02-26T18:43:40;4.50;;;2.88;;
14272;SDS011;7220;49.450;11.052;2024-02-26T18:47:40;4.97;;;3.42;;
14272;SDS011;7220;49.450;11.052;2024-02-26T18:51:41;4.35;;;2.85;;
14272;SDS011;7220;49.450;11.052;2024-02-26T18:55:42;5.97;;;3.17;;
14272;SDS011;7220;49.450;11.052;2024-02-26T18:59:42;5.38;;;3.60;;
14272;SDS011;7220;49.450;11.052;2024-02-26T19:03:43;5.72;;;3.30;;
14272;SDS011;7220;49.450;11.052;2024-02-26T19:07:43;4.28;;;3.10;;
14272;SDS011;7220;49.450;11.052;2024-02-26T19:11:44;4.63;;;3.40;;
14272;SDS011;7220;49.450;11.052;2024-02-26T19:15:46;4.75;;;3.03;;
14272;SDS011;7220;49.450;11.052;2024-02-26T19:19:46;5.30;;;2.92;;
14272;SDS011;7220;49.450;11.052;2024-02-26T19:23:47;4.20;;;2.95;;
14272;SDS011;7220;49.450;11.052;2024-02-26T19:27:47;4.63;;;3.00;;
14272;SDS011;7220;49.450;11.052;2024-02-26T19:31:48;5.28;;;3.13;;
14272;SDS011;7220;49.450;11.052;2024-02-26T19:35:49;4.63;;;3.35;;
14272;SDS011;7220;49.450;11.052;2024-02-26T19:39:49;6.63;;;3.22;;
14272;SDS011;7220;49.450;11.052;2024-02-26T19:43:49;4.53;;;2.95;;
14272;SDS011;7220;49.450;11.052;2024-02-26T19:47:50;6.22;;;3.72;;
14272;SDS011;7220;49.450;11.052;2024-02-26T19:51:50;5.45;;;3.58;;
14272;SDS011;7220;49.450;11.052;2024-02-26T19:55:51;3.83;;;3.20;;
14272;SDS011;7220;49.450;11.052;2024-02-26T19:59:51;5.70;;;3.05;;
14272;SDS011;7220;49.450;11.052;2024-02-26T20:03:52;5.45;;;3.70;;
14272;SDS011;7220;49.450;11.052;2024-02-26T20:07:52;5.72;;;3.10;;
14272;SDS011;7220;49.450;11.052;2024-02-26T20:11:52;5.68;;;3.85;;
14272;SDS011;7220;49.450;11.052;2024-02-26T20:15:53;6.28;;;3.72;;
14272;SDS011;7220;49.450;11.052;2024-02-26T20:19:53;5.95;;;3.75;;
14272;SDS011;7220;49.450;11.052;2024-02-26T20:23:58;4.68;;;3.33;;
14272;SDS011;7220;49.450;11.052;2024-02-26T20:27:58;5.93;;;3.35;;
14272;SDS011;7220;49.450;11.052;2024-02-26T20:31:59;5.72;;;4.15;;
14272;SDS011;7220;49.450;11.052;2024-02-26T20:36:00;8.27;;;4.25;;
14272;SDS011;7220;49.450;11.052;2024-02-26T20:40:00;5.97;;;3.80;;
14272;SDS011;7220;49.450;11.052;2024-02-26T20:44:06;8.18;;;4.13;;
14272;SDS011;7220;49.450;11.052;2024-02-26T20:48:06;8.05;;;4.13;;
14272;SDS011;7220;49.450;11.052;2024-02-26T20:52:07;5.18;;;3.67;;
14272;SDS011;7220;49.450;11.052;2024-02-26T20:56:07;10.02;;;4.20;;
14272;SDS011;7220;49.450;11.052;2024-02-26T21:00:07;5.50;;;3.83;;
14272;SDS011;7220;49.450;11.052;2024-02-26T21:04:08;5.85;;;3.63;;
14272;SDS011;7220;49.450;11.052;2024-02-26T21:08:09;5.80;;;3.72;;
14272;SDS011;7220;49.450;11.052;2024-02-26T21:12:09;6.00;;;3.83;;
14272;SDS011;7220;49.450;11.052;2024-02-26T21:16:11;6.30;;;3.67;;
14272;SDS011;7220;49.450;11.052;2024-02-26T21:20:11;7.93;;;4.85;;
14272;SDS011;7220;49.450;11.052;2024-02-26T21:24:14;8.85;;;4.28;;
14272;SDS011;7220;49.450;11.052;2024-02-26T21:28:15;6.35;;;3.85;;
14272;SDS011;7220;49.450;11.052;2024-02-26T21:32:15;5.57;;;3.80;;
14272;SDS011;7220;49.450;11.052;2024-02-26T21:36:16;6.47;;;4.38;;
14272;SDS011;7220;49.450;11.052;2024-02-26T21:40:17;10.63;;;4.20;;
14272;SDS011;7220;49.450;11.052;2024-02-26T21:44:17;6.45;;;4.07;;
14272;SDS011;7220;49.450;11.052;2024-02-26T21:48:18;6.80;;;4.13;;
14272;SDS011;7220;49.450;11.052;2024-02-26T21:52:18;9.95;;;3.80;;
14272;SDS011;7220;49.450;11.052;2024-02-26T21:56:18;5.82;;;3.70;;
14272;SDS011;7220;49.450;11.052;2024-02-26T22:00:19;7.80;;;4.43;;
14272;SDS011;7220;49.450;11.052;2024-02-26T22:04:19;5.22;;;3.63;;
14272;SDS011;7220;49.450;11.052;2024-02-26T22:08:20;7.00;;;3.95;;
14272;SDS011;7220;49.450;11.052;2024-02-26T22:12:20;6.65;;;4.28;;
14272;SDS011;7220;49.450;11.052;2024-02-26T22:16:21;9.90;;;4.18;;
14272;SDS011;7220;49.450;11.052;2024-02-26T22:20:21;4.78;;;3.80;;
14272;SDS011;7220;49.450;11.052;2024-02-26T22:24:21;10.82;;;4.10;;
14272;SDS011;7220;49.450;11.052;2024-02-26T22:28:22;6.82;;;4.18;;
14272;SDS011;7220;49.450;11.052;2024-02-26T22:32:22;8.68;;;4.55;;
14272;SDS011;7220;49.450;11.052;2024-02-26T22:36:22;7.82;;;4.43;;
14272;SDS011;7220;49.450;11.052;2024-02-26T22:40:23;8.23;;;4.03;;
14272;SDS011;7220;49.450;11.052;2024-02-26T22:44:23;6.25;;;3.92;;
14272;SDS011;7220;49.450;11.052;2024-02-26T22:48:24;7.43;;;4.07;;
14272;SDS011;7220;49.450;11.052;2024-02-26T22:52:24;7.60;;;5.00;;
14272;SDS011;7220;49.450;11.052;2024-02-26T22:56:24;8.13;;;4.43;;
14272;SDS011;7220;49.450;11.052;2024-02-26T23:00:25;4.70;;;3.78;;
14272;SDS011;7220;49.450;11.052;2024-02-26T23:04:28;5.55;;;4.20;;
14272;SDS011;7220;49.450;11.052;2024-02-26T23:08:28;7.50;;;4.63;;
14272;SDS011;7220;49.450;11.052;2024-02-26T23:12:29;6.25;;;4.45;;
14272;SDS011;7220;49.450;11.052;2024-02-26T23:16:29;6.63;;;4.10;;
14272;SDS011;7220;49.450;11.052;2024-02-26T23:20:30;8.60;;;4.28;;
14272;SDS011;7220;49.450;11.052;2024-02-26T23:24:30;6.53;;;4.07;;
14272;SDS011;7220;49.450;11.052;2024-02-26T23:28:30;6.15;;;4.13;;
14272;SDS011;7220;49.450;11.052;2024-02-26T23:32:31;6.05;;;3.67;;
14272;SDS011;7220;49.450;11.052;2024-02-26T23:36:31;6.32;;;3.58;;
14272;SDS011;7220;49.450;11.052;2024-02-26T23:40:32;6.57;;;3.85;;
14272;SDS011;7220;49.450;11.052;2024-02-26T23:44:33;9.25;;;4.75;;
14272;SDS011;7220;49.450;11.052;2024-02-26T23:48:33;6.80;;;4.18;;
14272;SDS011;7220;49.450;11.052;2024-02-26T23:52:34;7.20;;;4.15;;
14272;SDS011;7220;49.450;11.052;2024-02-26T23:56:34;5.60;;;3.97;;
